Albany, Georgia
Current Conditions -  °F | °C
As of 11:53 AM on Thursday 23 Oct 2014 (Local Time) from KABY Reporting Station
Clear Clear  
Wind Chill: 66°   Ceiling: Unl
Heat Index: 66°   Visibility: 10mi
Dew Point: 47°   Wind: 0mph
Humidity: 50%   Direction: NA
Pressure: 30.14"   Gusts: NA
Location:  31.58°N, 84.15°W
Report Text: KABY 231553Z 00000KT 10SM CLR 19/08 A3014 RMK AO2 SLP206 T01890083 $
Loading
Personal Weather Stations






























Interactive Weather Map
Tropical Storm Tracking
New forecast layout! Learn more

10-Day Weather Forecast

Advertisements
Track Severe Weather on mobile